createdAt,value
2019-03-13T00:02:10.091Z,5.09
2019-03-13T00:04:40.570Z,5.10
2019-03-13T00:07:11.594Z,5.10
2019-03-13T00:09:42.157Z,5.10
2019-03-13T00:12:12.689Z,5.13
2019-03-13T00:14:43.408Z,5.15
2019-03-13T00:17:13.954Z,5.15
2019-03-13T00:19:45.987Z,5.10
2019-03-13T00:22:16.519Z,5.10
2019-03-13T00:24:47.185Z,5.13
2019-03-13T00:27:17.651Z,5.19
2019-03-13T00:29:48.173Z,5.20
2019-03-13T00:32:18.666Z,5.18
2019-03-13T00:34:49.379Z,5.19
2019-03-13T00:37:19.906Z,5.19
2019-03-13T00:39:50.564Z,5.22
2019-03-13T00:42:21.172Z,5.20
2019-03-13T00:44:51.754Z,5.14
2019-03-13T00:47:22.042Z,5.14
2019-03-13T00:49:54.217Z,5.15
2019-03-13T00:52:24.521Z,5.16
2019-03-13T00:54:56.407Z,5.17
2019-03-13T00:57:26.719Z,5.15
2019-03-13T01:00:03.501Z,5.09
2019-03-13T01:02:36.550Z,4.97
2019-03-13T01:05:38.605Z,4.80
2019-03-13T01:08:08.943Z,4.75
2019-03-13T01:10:39.374Z,4.62
2019-03-13T01:13:10.050Z,4.74
2019-03-13T01:15:40.423Z,4.76
2019-03-13T01:18:16.089Z,4.78
2019-03-13T01:20:46.049Z,4.82
2019-03-13T01:23:16.344Z,4.82
2019-03-13T01:25:46.832Z,4.82
2019-03-13T01:28:19.592Z,4.91
2019-03-13T01:30:58.450Z,4.92
2019-03-13T01:33:30.582Z,4.85
2019-03-13T01:36:02.923Z,4.85
2019-03-13T01:38:33.525Z,4.83
2019-03-13T01:41:05.415Z,4.75
2019-03-13T01:43:36.642Z,4.66
2019-03-13T01:46:06.922Z,4.64
2019-03-13T01:48:39.027Z,4.51
2019-03-13T01:51:09.601Z,4.56
2019-03-13T01:53:40.804Z,4.67
2019-03-13T01:56:11.135Z,4.64
2019-03-13T01:58:43.545Z,4.56
2019-03-13T02:01:15.269Z,4.66
2019-03-13T02:03:45.595Z,4.76
2019-03-13T02:06:17.183Z,4.92
2019-03-13T02:08:47.831Z,4.94
2019-03-13T02:11:18.380Z,4.91
2019-03-13T02:13:48.911Z,4.79
2019-03-13T02:16:19.209Z,4.73
2019-03-13T02:18:51.469Z,4.83
2019-03-13T02:21:22.293Z,4.93
2019-03-13T02:23:52.898Z,4.93
2019-03-13T02:26:23.479Z,4.87
2019-03-13T02:28:54.004Z,4.91
2019-03-13T02:31:24.621Z,4.90
2019-03-13T02:33:54.938Z,4.96
2019-03-13T02:36:26.773Z,4.94
2019-03-13T02:38:57.184Z,4.97
2019-03-13T02:41:28.053Z,4.95
2019-03-13T02:43:58.415Z,4.96
2019-03-13T02:46:30.322Z,4.94
2019-03-13T02:49:00.710Z,4.89
2019-03-13T02:51:32.039Z,4.89
2019-03-13T02:54:02.675Z,4.86
2019-03-13T02:56:34.219Z,4.76
2019-03-13T02:59:04.558Z,4.71
2019-03-13T03:01:40.175Z,4.78
2019-03-13T03:04:11.660Z,4.91
2019-03-13T03:06:42.339Z,4.90
2019-03-13T03:09:12.773Z,4.92
2019-03-13T03:11:44.439Z,4.84
2019-03-13T03:14:15.072Z,4.78
2019-03-13T03:16:45.348Z,4.76
2019-03-13T03:19:15.930Z,4.59
2019-03-13T03:21:46.546Z,4.52
2019-03-13T03:24:18.084Z,4.54
2019-03-13T03:26:48.401Z,4.54
2019-03-13T03:29:20.933Z,4.55
2019-03-13T03:31:51.391Z,4.48
2019-03-13T03:34:23.009Z,4.44
2019-03-13T03:36:53.316Z,4.44
2019-03-13T03:39:23.642Z,4.41
2019-03-13T03:41:54.283Z,4.37
2019-03-13T03:44:24.575Z,4.37
2019-03-13T03:46:55.131Z,4.49
2019-03-13T03:49:25.426Z,4.55
2019-03-13T03:51:55.743Z,4.64
2019-03-13T03:54:26.023Z,4.72
2019-03-13T03:56:56.904Z,4.85
2019-03-13T03:59:27.165Z,5.04
2019-03-13T04:01:57.785Z,5.32
2019-03-13T04:04:28.409Z,5.32
2019-03-13T04:06:59.108Z,5.47
2019-03-13T04:09:29.996Z,5.58
2019-03-13T04:12:00.932Z,5.60
2019-03-13T04:14:31.268Z,5.65
2019-03-13T04:17:01.652Z,5.73
2019-03-13T04:19:32.229Z,5.74
2019-03-13T04:22:02.579Z,5.74
2019-03-13T04:24:33.108Z,5.86
2019-03-13T04:27:03.671Z,5.86
2019-03-13T04:29:34.649Z,5.88
2019-03-13T04:32:06.066Z,5.87
2019-03-13T04:34:36.381Z,5.89
2019-03-13T04:37:06.956Z,5.95
2019-03-13T04:39:37.245Z,5.96
2019-03-13T04:42:09.462Z,5.96
2019-03-13T04:44:39.739Z,5.95
2019-03-13T04:47:10.413Z,6.00
2019-03-13T04:49:40.679Z,6.02
2019-03-13T04:52:11.121Z,6.05
2019-03-13T04:54:41.738Z,6.03
2019-03-13T04:57:12.073Z,6.04
2019-03-13T04:59:42.479Z,6.04
2019-03-13T05:02:12.792Z,6.03
2019-03-13T05:04:43.126Z,6.08
2019-03-13T05:07:13.750Z,6.06
2019-03-13T05:09:44.032Z,6.01
2019-03-13T05:12:16.767Z,6.03
2019-03-13T05:14:48.283Z,6.03
2019-03-13T05:17:18.593Z,6.04
2019-03-13T05:19:48.866Z,6.04
2019-03-13T05:22:21.459Z,6.07
2019-03-13T05:24:51.426Z,6.08
2019-03-13T05:27:22.015Z,6.09
2019-03-13T05:29:52.307Z,6.17
2019-03-13T05:32:22.728Z,6.16
2019-03-13T05:34:53.006Z,6.18
2019-03-13T05:37:25.104Z,6.16
2019-03-13T05:39:55.421Z,6.17
2019-03-13T05:42:27.085Z,6.18
2019-03-13T05:44:57.350Z,6.23
2019-03-13T05:47:27.676Z,6.22
2019-03-13T05:49:58.308Z,6.22
2019-03-13T05:52:28.650Z,6.22
2019-03-13T05:54:59.208Z,6.25
2019-03-13T05:57:29.825Z,6.25
2019-03-13T06:00:00.937Z,6.23
2019-03-13T06:02:31.398Z,6.29
2019-03-13T06:05:02.753Z,6.29
2019-03-13T06:07:35.883Z,6.31
2019-03-13T06:10:07.177Z,6.34
2019-03-13T06:12:37.903Z,6.36
2019-03-13T06:15:09.047Z,6.38
2019-03-13T06:17:39.616Z,6.38
2019-03-13T06:20:10.845Z,6.40
2019-03-13T06:22:44.319Z,6.41
2019-03-13T06:25:14.679Z,6.40
2019-03-13T06:27:46.688Z,6.41
2019-03-13T06:30:17.195Z,6.36
2019-03-13T06:32:47.868Z,6.33
2019-03-13T06:35:18.458Z,6.31
2019-03-13T06:37:49.041Z,6.28
2019-03-13T06:40:19.494Z,6.24
2019-03-13T06:42:50.580Z,6.21
2019-03-13T06:45:23.317Z,6.18
2019-03-13T06:47:54.555Z,6.19
2019-03-13T06:50:24.968Z,6.20
2019-03-13T06:52:55.486Z,6.20
2019-03-13T06:55:25.933Z,5.83
2019-03-13T06:57:56.235Z,5.83
2019-03-13T07:00:44.277Z,5.72
2019-03-13T07:03:44.350Z,5.69
2019-03-13T07:06:43.836Z,5.66
2019-03-13T07:09:39.280Z,5.75
2019-03-13T07:12:25.840Z,5.85
2019-03-13T07:15:24.587Z,5.82
2019-03-13T07:18:16.938Z,5.87
2019-03-13T07:20:58.582Z,5.90
2019-03-13T07:23:42.327Z,5.96
2019-03-13T07:26:30.190Z,6.02
2019-03-13T07:29:19.738Z,6.05
2019-03-13T07:32:24.420Z,5.92
2019-03-13T07:35:12.845Z,5.92
2019-03-13T07:38:16.097Z,5.77
2019-03-13T07:41:04.638Z,5.61
2019-03-13T07:43:56.555Z,5.45
2019-03-13T07:46:44.721Z,5.38
2019-03-13T07:49:49.394Z,5.38
2019-03-13T07:52:37.648Z,5.40
2019-03-13T07:55:17.507Z,5.39
2019-03-13T07:58:00.565Z,5.30
2019-03-13T08:00:55.699Z,5.31
2019-03-13T08:03:44.936Z,5.31
2019-03-13T08:06:43.428Z,5.34
2019-03-13T08:09:24.032Z,5.36
2019-03-13T08:12:12.533Z,5.41
2019-03-13T08:14:55.238Z,5.48
2019-03-13T08:17:31.734Z,5.48
2019-03-13T08:20:13.479Z,5.60
2019-03-13T08:23:02.914Z,5.90
2019-03-13T08:25:41.482Z,6.16
2019-03-13T08:28:29.206Z,6.32
2019-03-13T08:31:14.400Z,6.48
2019-03-13T08:34:05.299Z,6.58
2019-03-13T08:36:57.823Z,6.57
2019-03-13T08:39:58.671Z,6.55
2019-03-13T08:42:52.930Z,6.49
2019-03-13T08:45:40.482Z,6.58
2019-03-13T08:48:31.191Z,6.70
2019-03-13T08:51:26.556Z,6.78
2019-03-13T08:54:18.538Z,6.96
2019-03-13T08:57:07.932Z,7.04
2019-03-13T08:59:45.083Z,6.97
2019-03-13T09:02:44.596Z,6.92
2019-03-13T09:05:32.548Z,6.81
2019-03-13T09:08:31.184Z,6.58
2019-03-13T09:11:20.429Z,6.27
2019-03-13T09:14:12.863Z,6.07
2019-03-13T09:16:52.791Z,5.91
2019-03-13T09:19:42.369Z,5.88
2019-03-13T09:29:45.274Z,5.92
2019-03-13T09:32:33.244Z,5.77
2019-03-13T09:35:14.813Z,5.76
2019-03-13T09:38:03.023Z,5.72
2019-03-13T09:40:45.592Z,5.69
2019-03-13T09:43:36.130Z,5.64
2019-03-13T09:46:19.956Z,5.69
2019-03-13T09:49:21.571Z,5.77
2019-03-13T09:52:16.670Z,5.93
2019-03-13T09:55:04.969Z,5.95
2019-03-13T09:57:53.275Z,6.01
2019-03-13T10:00:51.908Z,6.03
2019-03-13T10:03:33.116Z,6.03
2019-03-13T10:06:25.425Z,6.08
2019-03-13T10:09:17.968Z,6.28
2019-03-13T10:11:59.186Z,6.44
2019-03-13T10:14:37.200Z,6.79
2019-03-13T10:17:32.699Z,6.93
2019-03-13T10:20:20.216Z,6.89
2019-03-13T10:23:18.952Z,6.75
2019-03-13T10:26:00.131Z,6.88
2019-03-13T10:28:52.653Z,7.33
2019-03-13T10:31:42.815Z,7.56
2019-03-13T10:34:32.107Z,7.44
2019-03-13T10:37:18.870Z,7.46
2019-03-13T10:40:05.662Z,7.32
2019-03-13T10:42:50.043Z,7.32
2019-03-13T10:45:26.874Z,7.31
2019-03-13T10:48:03.360Z,7.44
2019-03-13T10:50:58.785Z,7.46
2019-03-13T10:53:51.215Z,7.64
2019-03-13T10:56:40.560Z,7.64
2019-03-13T10:59:34.270Z,7.79
2019-03-13T11:02:39.190Z,7.99
2019-03-13T11:05:21.350Z,8.26
2019-03-13T11:08:05.734Z,8.40
2019-03-13T11:11:00.993Z,8.56
2019-03-13T11:13:56.485Z,8.78
2019-03-13T11:16:47.959Z,8.64
2019-03-13T11:19:45.708Z,8.56
2019-03-13T11:22:25.597Z,8.72
2019-03-13T11:25:03.797Z,8.70
2019-03-13T11:27:53.684Z,8.47
2019-03-13T11:30:40.021Z,8.16
2019-03-13T11:33:29.876Z,7.99
2019-03-13T11:36:28.854Z,7.87
2019-03-13T11:39:19.471Z,7.77
2019-03-13T11:42:08.918Z,7.79
2019-03-13T11:44:56.367Z,7.79
2019-03-13T11:47:54.117Z,7.89
2019-03-13T11:50:35.966Z,8.00
2019-03-13T11:53:13.178Z,8.09
2019-03-13T11:55:50.509Z,8.08
2019-03-13T11:58:55.650Z,8.11
2019-03-13T12:01:45.429Z,8.11
2019-03-13T12:04:38.020Z,8.19
2019-03-13T12:07:33.052Z,8.23
2019-03-13T12:10:18.066Z,8.00
2019-03-13T12:13:29.845Z,7.62
2019-03-13T12:16:04.829Z,7.28
2019-03-13T12:18:48.807Z,7.06
2019-03-13T12:21:37.985Z,6.90
2019-03-13T12:24:39.912Z,6.85
2019-03-13T12:27:44.709Z,6.98
2019-03-13T12:30:33.979Z,7.09
2019-03-13T12:33:35.620Z,6.95
2019-03-13T12:36:30.974Z,6.95
2019-03-13T12:39:32.404Z,6.93
2019-03-13T12:42:24.476Z,6.89
2019-03-13T12:45:14.062Z,6.80
2019-03-13T12:47:51.578Z,6.64
2019-03-13T12:50:52.855Z,6.64
2019-03-13T12:53:57.518Z,6.64
2019-03-13T12:56:49.816Z,6.61
2019-03-13T12:59:35.238Z,6.59
2019-03-13T13:02:19.381Z,6.47
2019-03-13T13:05:03.335Z,6.40
2019-03-13T13:07:43.584Z,6.40
2019-03-13T13:10:26.359Z,6.34
2019-03-13T13:13:18.978Z,6.37
2019-03-13T13:16:14.026Z,6.52
2019-03-13T13:18:54.534Z,6.68
2019-03-13T13:21:24.941Z,6.77
2019-03-13T13:23:56.864Z,6.78
2019-03-13T13:26:27.548Z,6.92
2019-03-13T13:28:59.874Z,6.92
2019-03-13T13:31:30.407Z,6.95
2019-03-13T13:34:01.197Z,6.93
2019-03-13T13:36:31.783Z,6.79
2019-03-13T13:39:03.532Z,6.66
2019-03-13T13:41:35.522Z,6.54
2019-03-13T13:44:06.054Z,6.54
2019-03-13T13:46:39.125Z,6.56
2019-03-13T13:49:10.853Z,6.58
2019-03-13T13:51:41.206Z,6.62
2019-03-13T13:54:11.806Z,6.62
2019-03-13T13:56:42.199Z,6.55
2019-03-13T13:59:12.746Z,6.48
2019-03-13T14:01:43.021Z,6.43
2019-03-13T14:04:13.774Z,6.42
2019-03-13T14:06:44.103Z,6.45
2019-03-13T14:09:14.394Z,6.47
2019-03-13T14:11:44.967Z,6.49
2019-03-13T14:14:15.321Z,6.53
2019-03-13T14:16:45.672Z,6.61
2019-03-13T14:19:16.007Z,6.64
2019-03-13T14:21:47.718Z,6.64
2019-03-13T14:24:18.188Z,6.65
2019-03-13T14:26:50.064Z,6.63
2019-03-13T14:29:21.143Z,6.61
2019-03-13T14:31:52.252Z,6.52
2019-03-13T14:34:22.574Z,6.53
2019-03-13T14:36:53.232Z,6.56
2019-03-13T14:39:23.539Z,6.59
2019-03-13T14:41:54.517Z,6.58
2019-03-13T14:44:24.990Z,6.54
2019-03-13T14:46:55.346Z,6.47
2019-03-13T14:49:26.031Z,6.44
2019-03-13T14:51:56.738Z,6.22
2019-03-13T14:54:28.730Z,5.97
2019-03-13T14:56:59.331Z,5.74
2019-03-13T14:59:30.106Z,5.75
2019-03-13T15:04:40.149Z,6.08
2019-03-13T15:07:10.476Z,6.25
2019-03-13T15:09:40.760Z,6.38
2019-03-13T15:12:11.068Z,6.46
2019-03-13T15:14:45.636Z,6.48
2019-03-13T15:17:17.721Z,6.43
2019-03-13T15:19:48.090Z,6.28
2019-03-13T15:22:18.451Z,6.26
2019-03-13T15:24:50.775Z,6.29
2019-03-13T15:27:21.266Z,6.27
2019-03-13T15:29:51.862Z,6.30
2019-03-13T15:32:22.227Z,6.33
2019-03-13T15:34:53.788Z,6.34
2019-03-13T15:37:24.093Z,6.29
2019-03-13T15:39:54.718Z,6.22
2019-03-13T15:42:25.065Z,6.22
2019-03-13T15:44:57.621Z,6.24
2019-03-13T15:47:27.948Z,6.19
2019-03-13T15:49:58.314Z,6.14
2019-03-13T15:52:28.613Z,6.11
2019-03-13T15:54:58.967Z,6.12
2019-03-13T15:57:29.341Z,6.13
2019-03-13T16:00:00.576Z,6.22
2019-03-13T16:02:31.680Z,6.28
2019-03-13T16:05:02.096Z,6.31
2019-03-13T16:07:32.739Z,6.33
2019-03-13T16:10:03.681Z,6.36
2019-03-13T16:12:34.440Z,6.38
2019-03-13T16:15:05.671Z,6.34
2019-03-13T16:17:38.048Z,6.26
2019-03-13T16:20:09.431Z,6.18
2019-03-13T16:22:41.798Z,6.08
2019-03-13T16:25:12.455Z,5.95
2019-03-13T16:27:43.346Z,5.95
2019-03-13T16:30:18.675Z,5.92
2019-03-13T16:32:49.077Z,5.87
2019-03-13T16:35:19.686Z,5.84
2019-03-13T16:37:54.210Z,5.80
2019-03-13T16:40:24.943Z,5.75
2019-03-13T16:42:55.242Z,5.73
2019-03-13T16:45:26.080Z,5.71
2019-03-13T16:47:57.818Z,5.69
2019-03-13T16:50:28.414Z,5.66
2019-03-13T16:52:59.254Z,5.65
2019-03-13T16:55:31.171Z,5.63
2019-03-13T17:00:39.779Z,5.67
2019-03-13T17:03:10.248Z,5.70
2019-03-13T17:05:40.680Z,5.72
2019-03-13T17:08:11.404Z,5.72
2019-03-13T17:10:41.739Z,5.72
2019-03-13T17:13:12.169Z,5.65
2019-03-13T17:15:42.546Z,5.65
2019-03-13T17:18:12.941Z,5.66
2019-03-13T17:20:43.362Z,5.61
2019-03-13T17:23:13.987Z,5.60
2019-03-13T17:25:44.629Z,5.65
2019-03-13T17:28:15.225Z,5.66
2019-03-13T17:30:46.631Z,5.72
2019-03-13T17:33:17.861Z,5.75
2019-03-13T17:35:49.610Z,5.79
2019-03-13T17:38:21.641Z,5.78
2019-03-13T17:40:53.680Z,5.78
2019-03-13T17:43:23.977Z,5.80
2019-03-13T17:45:54.339Z,5.82
2019-03-13T17:48:24.753Z,5.78
2019-03-13T17:50:55.442Z,5.73
2019-03-13T17:53:25.854Z,5.78
2019-03-13T17:55:56.268Z,5.82
2019-03-13T17:58:26.707Z,5.82
2019-03-13T18:00:57.526Z,5.80
2019-03-13T18:03:27.931Z,5.80
2019-03-13T18:06:00.648Z,5.80
2019-03-13T18:08:31.081Z,5.79
2019-03-13T18:11:01.817Z,5.84
2019-03-13T18:13:33.236Z,5.86
2019-03-13T18:16:05.491Z,5.88
2019-03-13T18:18:36.527Z,5.88
2019-03-13T18:21:08.628Z,5.93
2019-03-13T18:23:39.291Z,5.94
2019-03-13T18:26:11.142Z,5.96
2019-03-13T18:28:43.395Z,5.85
2019-03-13T18:31:13.768Z,5.78
2019-03-13T18:33:44.440Z,5.75
2019-03-13T18:36:16.355Z,5.77
2019-03-13T18:38:47.900Z,5.68
2019-03-13T18:41:18.835Z,5.53
2019-03-13T18:43:49.283Z,5.51
2019-03-13T18:46:19.692Z,5.57
2019-03-13T18:48:50.555Z,5.54
2019-03-13T18:51:21.190Z,5.47
2019-03-13T18:53:51.683Z,5.47
2019-03-13T18:56:23.458Z,5.46
2019-03-13T18:58:54.081Z,5.58
2019-03-13T19:01:24.902Z,5.74
2019-03-13T19:03:55.236Z,5.86
2019-03-13T19:06:27.303Z,5.89
2019-03-13T19:08:58.812Z,5.73
2019-03-13T19:11:31.586Z,5.55
2019-03-13T19:14:01.955Z,5.60
2019-03-13T19:16:33.724Z,5.58
2019-03-13T19:19:04.317Z,5.58
2019-03-13T19:21:34.812Z,5.44
2019-03-13T19:24:05.279Z,5.41
2019-03-13T19:26:35.723Z,5.38
2019-03-13T19:29:06.205Z,5.39
2019-03-13T19:31:36.607Z,5.44
2019-03-13T19:34:09.159Z,5.52
2019-03-13T19:36:39.735Z,5.53
2019-03-13T19:39:10.320Z,5.47
2019-03-13T19:41:41.728Z,5.50
2019-03-13T19:44:12.105Z,5.51
2019-03-13T19:46:43.872Z,5.54
2019-03-13T19:49:14.301Z,5.51
2019-03-13T19:51:44.693Z,5.47
2019-03-13T19:54:17.287Z,5.50
2019-03-13T19:56:47.670Z,5.43
2019-03-13T19:59:20.844Z,5.27
2019-03-13T20:01:51.354Z,5.14
2019-03-13T20:04:21.906Z,5.13
2019-03-13T20:06:52.324Z,5.10
2019-03-13T20:11:58.866Z,4.99
2019-03-13T20:14:33.619Z,5.02
2019-03-13T20:17:04.455Z,5.06
2019-03-13T20:19:37.321Z,5.07
2019-03-13T20:22:08.892Z,5.09
2019-03-13T20:24:39.449Z,5.11
2019-03-13T20:27:10.190Z,5.08
2019-03-13T20:29:40.595Z,5.05
2019-03-13T20:37:40.670Z,4.83
2019-03-13T20:40:14.515Z,4.78
2019-03-13T20:42:45.147Z,4.77
2019-03-13T20:45:23.086Z,4.79
2019-03-13T20:47:54.858Z,4.80
2019-03-13T20:50:35.698Z,4.77
2019-03-13T20:52:59.348Z,4.82
2019-03-13T20:55:29.758Z,4.82
2019-03-13T20:58:00.397Z,4.80
2019-03-13T21:00:34.524Z,4.79
2019-03-13T21:03:04.272Z,4.85
2019-03-13T21:05:35.036Z,4.92
2019-03-13T21:08:05.771Z,4.89
2019-03-13T21:10:38.445Z,4.89
2019-03-13T21:13:08.670Z,4.78
2019-03-13T21:15:39.513Z,4.87
2019-03-13T21:18:11.513Z,4.87
2019-03-13T21:20:41.887Z,4.86
2019-03-13T21:23:12.231Z,4.85
2019-03-13T21:25:42.848Z,4.79
2019-03-13T21:30:49.524Z,4.73
2019-03-13T21:33:24.015Z,4.84
2019-03-13T21:35:53.695Z,4.97
2019-03-13T21:38:24.586Z,4.96
2019-03-13T21:40:55.175Z,5.03
2019-03-13T21:43:27.866Z,5.03
2019-03-13T21:45:58.528Z,4.92
2019-03-13T21:48:28.951Z,5.02
2019-03-13T21:50:59.980Z,5.12
2019-03-13T21:53:30.333Z,5.19
2019-03-13T21:56:02.941Z,5.18
2019-03-13T21:58:34.752Z,5.04
2019-03-13T22:01:05.726Z,5.04
2019-03-13T22:03:36.010Z,5.09
2019-03-13T22:06:06.509Z,5.05
2019-03-13T22:08:38.035Z,5.05
2019-03-13T22:11:08.666Z,5.15
2019-03-13T22:13:39.094Z,5.07
2019-03-13T22:16:10.032Z,4.96
2019-03-13T22:18:40.356Z,4.95
2019-03-13T22:21:12.636Z,4.94
2019-03-13T22:23:43.073Z,4.97
2019-03-13T22:26:14.523Z,5.09
2019-03-13T22:28:44.869Z,5.08
2019-03-13T22:31:15.499Z,4.97
2019-03-13T22:33:45.816Z,4.97
2019-03-13T22:36:17.559Z,4.87
2019-03-13T22:38:47.848Z,4.87
2019-03-13T22:41:19.442Z,4.87
2019-03-13T22:43:50.181Z,4.90
2019-03-13T22:46:20.689Z,4.96
2019-03-13T22:48:58.262Z,5.08
2019-03-13T22:51:23.067Z,5.13
2019-03-13T22:53:53.634Z,5.20
2019-03-13T22:56:25.624Z,5.27
2019-03-13T22:58:55.925Z,5.28
2019-03-13T23:01:27.013Z,5.30
2019-03-13T23:03:57.976Z,5.17
2019-03-13T23:06:28.680Z,5.16
2019-03-13T23:08:59.438Z,5.23
2019-03-13T23:11:29.967Z,5.21
2019-03-13T23:14:00.881Z,5.12
2019-03-13T23:16:34.173Z,5.07
2019-03-13T23:19:05.970Z,5.08
2019-03-13T23:21:36.252Z,5.07
2019-03-13T23:24:07.773Z,5.04
2019-03-13T23:26:38.074Z,5.09
2019-03-13T23:29:10.307Z,5.33
2019-03-13T23:31:40.667Z,5.33
2019-03-13T23:34:10.956Z,5.48
2019-03-13T23:36:41.279Z,5.59
2019-03-13T23:39:12.432Z,5.63
2019-03-13T23:41:43.406Z,5.65
2019-03-13T23:44:13.715Z,5.68
2019-03-13T23:46:45.966Z,5.69
2019-03-13T23:49:16.357Z,5.79
2019-03-13T23:51:46.981Z,5.82
2019-03-13T23:54:17.444Z,5.80
2019-03-13T23:56:48.158Z,5.66
2019-03-13T23:59:18.459Z,5.53
